KEWB/EWB METAR and TAF weather

Enter ICAO airport designator
Station Type Date Time Source
KEWB METAR 2019/06/18 12:20 UTC NOAA

KEWB 181220Z 12005KT 6SM BR BKN005 OVC050 19/18 A2997 RMK AO2 T01890178


Station Type Date Time Source
KEWB Decoded METAR 2019/06/18 12:20 UTC NOAA

NEW BEDFORD REGIONAL AIRPORT, MA, United States (KEWB) 41-41N 070-58W 23M
Jun 18, 2019 - 08:20 AM EDT / 2019.06.18 1220 UTC
Wind: from the ESE (120 degrees) at 6 MPH (5 KT):0
Visibility: 6 mile(s):0
Sky conditions: overcast
Weather: mist
Temperature: 66.0 F (18.9 C)
Dew Point: 64.0 F (17.8 C)
Relative Humidity: 93%
Pressure (altimeter): 29.97 in. Hg (1014 hPa)
ob: KEWB 181220Z 12005KT 6SM BR BKN005 OVC050 19/18 A2997 RMK AO2 T01890178
cycle: 12

Station Type Date Time Source
KEWB TAF UTC NOAA

Error!

Example: see airport list